createdAt,value
2022-11-05T00:02:50.467Z,9.65
2022-11-05T00:05:35.893Z,9.66
2022-11-05T00:08:23.337Z,9.67
2022-11-05T00:10:51.169Z,9.71
2022-11-05T00:13:36.639Z,9.68
2022-11-05T00:16:36.259Z,9.66
2022-11-05T00:19:10.299Z,9.68
2022-11-05T00:22:03.996Z,9.61
2022-11-05T00:24:50.564Z,9.65
2022-11-05T00:27:18.289Z,9.65
2022-11-05T00:29:46.035Z,9.71
2022-11-05T00:32:14.124Z,9.78
2022-11-05T00:34:41.806Z,9.73
2022-11-05T00:37:09.506Z,9.74
2022-11-05T00:39:38.881Z,9.76
2022-11-05T00:42:23.993Z,9.78
2022-11-05T00:45:01.730Z,9.82
2022-11-05T00:47:46.847Z,9.77
2022-11-05T00:50:15.001Z,9.74
2022-11-05T00:52:57.986Z,9.77
2022-11-05T00:55:30.262Z,9.72
2022-11-05T00:57:58.778Z,9.77
2022-11-05T01:00:28.678Z,9.74
2022-11-05T01:02:59.789Z,9.74
2022-11-05T01:05:28.871Z,9.78
2022-11-05T01:07:56.793Z,9.82
2022-11-05T01:10:24.883Z,9.78
2022-11-05T01:12:54.324Z,9.87
2022-11-05T01:15:22.751Z,9.82
2022-11-05T01:17:51.867Z,9.76
2022-11-05T01:20:19.779Z,9.75
2022-11-05T01:22:47.677Z,9.74
2022-11-05T01:25:15.825Z,9.73
2022-11-05T01:27:43.816Z,9.68
2022-11-05T01:30:14.046Z,9.61
2022-11-05T01:32:41.969Z,9.58
2022-11-05T01:35:13.298Z,9.55
2022-11-05T01:37:40.999Z,9.48
2022-11-05T01:40:11.575Z,9.46
2022-11-05T01:42:39.200Z,9.44
2022-11-05T01:45:16.863Z,9.49
2022-11-05T01:47:53.213Z,9.45
2022-11-05T01:50:28.191Z,9.26
2022-11-05T01:53:01.656Z,9.19
2022-11-05T01:55:34.945Z,9.14
2022-11-05T01:58:03.737Z,9.04
2022-11-05T02:00:32.819Z,9.07
2022-11-05T02:03:01.174Z,9.14
2022-11-05T02:05:29.503Z,9.07
2022-11-05T02:07:57.734Z,9.03
2022-11-05T02:10:25.639Z,9.03
2022-11-05T02:12:53.365Z,8.98
2022-11-05T02:15:27.891Z,9.03
2022-11-05T02:18:12.145Z,9.03
2022-11-05T02:20:51.977Z,9.07
2022-11-05T02:23:47.727Z,9.06
2022-11-05T02:26:53.900Z,9.14
2022-11-05T02:29:58.500Z,9.18
2022-11-05T02:32:39.164Z,9.20
2022-11-05T02:35:16.991Z,9.23
2022-11-05T02:37:50.607Z,9.28
2022-11-05T02:40:26.627Z,9.29
2022-11-05T02:43:03.600Z,9.30
2022-11-05T02:45:43.229Z,9.37
2022-11-05T02:48:18.882Z,9.35
2022-11-05T02:50:55.203Z,9.38
2022-11-05T02:53:33.646Z,9.43
2022-11-05T02:56:04.642Z,9.44
2022-11-05T02:58:35.027Z,9.47
2022-11-05T03:01:06.765Z,9.45
2022-11-05T03:03:39.461Z,9.47
2022-11-05T03:06:23.626Z,9.45
2022-11-05T03:09:24.318Z,9.45
2022-11-05T03:12:03.798Z,9.47
2022-11-05T03:14:40.458Z,9.47
2022-11-05T03:17:13.645Z,9.52
2022-11-05T03:19:49.147Z,9.60
2022-11-05T03:22:24.832Z,9.83
2022-11-05T03:24:57.411Z,9.72
2022-11-05T03:27:31.076Z,9.58
2022-11-05T03:30:02.758Z,9.44
2022-11-05T03:32:33.748Z,9.42
2022-11-05T03:35:06.304Z,9.51
2022-11-05T03:37:38.375Z,9.42
2022-11-05T03:40:10.297Z,9.34
2022-11-05T03:42:41.820Z,9.47
2022-11-05T03:45:15.555Z,9.33
2022-11-05T03:47:47.246Z,9.34
2022-11-05T03:50:22.547Z,9.24
2022-11-05T03:52:54.285Z,9.37
2022-11-05T03:55:27.453Z,9.24
2022-11-05T03:57:57.070Z,9.32
2022-11-05T04:00:24.902Z,9.22
2022-11-05T04:02:52.940Z,9.24
2022-11-05T04:05:22.278Z,9.20
2022-11-05T04:08:11.475Z,9.15
2022-11-05T04:11:01.435Z,9.11
2022-11-05T04:13:29.405Z,9.22
2022-11-05T04:16:15.341Z,9.19
2022-11-05T04:18:43.755Z,9.13
2022-11-05T04:21:30.381Z,9.12
2022-11-05T04:24:10.491Z,9.18
2022-11-05T04:26:40.100Z,9.14
2022-11-05T04:29:25.685Z,9.14
2022-11-05T04:31:53.585Z,9.07
2022-11-05T04:34:22.578Z,9.00
2022-11-05T04:36:53.090Z,9.04
2022-11-05T04:39:21.900Z,9.06
2022-11-05T04:41:49.573Z,9.13
2022-11-05T04:44:17.695Z,9.13
2022-11-05T04:46:45.501Z,9.08
2022-11-05T04:49:13.462Z,9.02
2022-11-05T04:51:41.060Z,8.98
2022-11-05T04:54:10.072Z,8.94
2022-11-05T04:56:38.015Z,8.99
2022-11-05T04:59:05.669Z,8.98
2022-11-05T05:01:33.801Z,8.91
2022-11-05T05:04:01.580Z,8.92
2022-11-05T05:06:29.196Z,8.91
2022-11-05T05:08:56.827Z,9.01
2022-11-05T05:11:26.072Z,8.90
2022-11-05T05:13:53.668Z,8.84
2022-11-05T05:16:23.345Z,8.84
2022-11-05T05:18:51.668Z,8.82
2022-11-05T05:21:38.587Z,8.82
2022-11-05T05:24:08.759Z,8.76
2022-11-05T05:26:39.389Z,8.76
2022-11-05T05:29:07.893Z,8.73
2022-11-05T05:31:35.863Z,8.84
2022-11-05T05:34:03.818Z,8.81
2022-11-05T05:36:31.885Z,8.80
2022-11-05T05:38:59.936Z,8.76
2022-11-05T05:41:27.625Z,8.83
2022-11-05T05:43:56.610Z,8.83
2022-11-05T05:46:24.275Z,8.90
2022-11-05T05:48:53.110Z,8.92
2022-11-05T05:51:21.112Z,8.92
2022-11-05T05:53:48.736Z,8.81
2022-11-05T05:56:19.235Z,8.79
2022-11-05T05:58:47.637Z,8.82
2022-11-05T06:01:19.721Z,8.85
2022-11-05T06:03:48.250Z,8.84
2022-11-05T06:06:19.811Z,8.84
2022-11-05T06:08:47.958Z,8.83
2022-11-05T06:11:15.643Z,8.83
2022-11-05T06:13:43.340Z,8.78
2022-11-05T06:16:11.535Z,8.84
2022-11-05T06:18:40.735Z,8.86
2022-11-05T06:21:10.733Z,8.83
2022-11-05T06:23:39.941Z,8.88
2022-11-05T06:26:10.043Z,8.84
2022-11-05T06:28:37.785Z,8.85
2022-11-05T06:31:06.281Z,8.84
2022-11-05T06:33:34.621Z,8.87
2022-11-05T06:36:06.500Z,8.86
2022-11-05T06:38:35.434Z,8.90
2022-11-05T06:41:09.002Z,8.91
2022-11-05T06:43:38.978Z,8.89
2022-11-05T06:46:07.205Z,8.93
2022-11-05T06:48:35.928Z,8.92
2022-11-05T06:51:05.708Z,8.92
2022-11-05T06:53:33.484Z,8.95
2022-11-05T06:56:03.868Z,8.93
2022-11-05T06:58:32.023Z,8.96
2022-11-05T07:01:04.282Z,8.98
2022-11-05T07:03:32.356Z,8.95
2022-11-05T07:06:01.128Z,8.94
2022-11-05T07:08:32.548Z,8.98
2022-11-05T07:11:00.744Z,9.05
2022-11-05T07:13:28.452Z,9.06
2022-11-05T07:15:56.526Z,9.06
2022-11-05T07:18:24.557Z,9.11
2022-11-05T07:20:52.264Z,9.07
2022-11-05T07:23:20.012Z,9.09
2022-11-05T07:25:49.088Z,9.10
2022-11-05T07:28:17.024Z,9.10
2022-11-05T07:30:44.714Z,9.15
2022-11-05T07:33:13.208Z,9.13
2022-11-05T07:35:41.635Z,9.15
2022-11-05T07:38:09.696Z,9.17
2022-11-05T07:40:37.444Z,9.21
2022-11-05T07:43:06.434Z,9.15
2022-11-05T07:45:34.062Z,9.23
2022-11-05T07:48:02.965Z,9.26
2022-11-05T07:50:32.872Z,9.25
2022-11-05T07:53:02.031Z,9.28
2022-11-05T07:55:30.117Z,9.38
2022-11-05T07:57:57.873Z,9.42
2022-11-05T08:00:28.067Z,9.44
2022-11-05T08:03:07.125Z,9.50
2022-11-05T08:05:37.875Z,9.53
2022-11-05T08:08:11.052Z,9.63
2022-11-05T08:10:39.503Z,9.58
2022-11-05T08:13:33.102Z,9.62
2022-11-05T08:16:02.443Z,9.63
2022-11-05T08:18:32.272Z,9.62
2022-11-05T08:21:01.432Z,9.59
2022-11-05T08:23:30.213Z,9.53
2022-11-05T08:25:58.614Z,9.59
2022-11-05T08:28:27.489Z,9.53
2022-11-05T08:30:57.182Z,9.55
2022-11-05T08:33:27.429Z,9.54
2022-11-05T08:35:55.953Z,9.64
2022-11-05T08:38:23.638Z,9.55
2022-11-05T08:40:57.413Z,9.52
2022-11-05T08:43:25.478Z,9.60
2022-11-05T08:45:54.906Z,9.67
2022-11-05T08:48:22.519Z,9.63
2022-11-05T08:50:51.653Z,9.68
2022-11-05T08:53:19.622Z,9.73
2022-11-05T08:55:49.983Z,9.75
2022-11-05T08:58:17.897Z,9.78
2022-11-05T09:00:46.974Z,9.83
2022-11-05T09:03:16.303Z,9.85
2022-11-05T09:05:44.656Z,9.91
2022-11-05T09:08:16.085Z,9.96
2022-11-05T09:10:44.692Z,10.04
2022-11-05T09:13:18.292Z,10.05
2022-11-05T09:15:47.161Z,10.03
2022-11-05T09:18:15.974Z,10.10
2022-11-05T09:20:44.144Z,10.00
2022-11-05T09:23:15.096Z,9.99
2022-11-05T09:25:42.947Z,10.09
2022-11-05T09:28:16.521Z,10.12
2022-11-05T09:30:47.385Z,10.09
2022-11-05T09:33:15.662Z,10.03
2022-11-05T09:35:43.847Z,10.05
2022-11-05T09:38:13.587Z,10.02
2022-11-05T09:40:45.679Z,10.07
2022-11-05T09:43:20.213Z,10.08
2022-11-05T09:45:50.579Z,10.07
2022-11-05T09:48:21.508Z,10.10
2022-11-05T09:50:51.136Z,10.09
2022-11-05T09:53:23.546Z,10.16
2022-11-05T09:55:54.520Z,10.17
2022-11-05T09:58:31.981Z,10.19
2022-11-05T10:01:00.214Z,10.19
2022-11-05T10:03:30.969Z,10.37
2022-11-05T10:06:08.241Z,10.49
2022-11-05T10:08:42.570Z,10.67
2022-11-05T10:11:16.755Z,10.85
2022-11-05T10:13:48.695Z,10.79
2022-11-05T10:16:24.451Z,10.76
2022-11-05T10:18:58.153Z,10.83
2022-11-05T10:21:51.386Z,10.88
2022-11-05T10:24:17.274Z,10.80
2022-11-05T10:26:48.956Z,10.76
2022-11-05T10:29:23.764Z,10.88
2022-11-05T10:31:54.427Z,10.86
2022-11-05T10:34:24.884Z,10.80
2022-11-05T10:36:54.179Z,10.89
2022-11-05T10:39:24.295Z,11.10
2022-11-05T10:42:17.066Z,11.15
2022-11-05T10:44:51.446Z,11.11
2022-11-05T10:47:45.609Z,11.01
2022-11-05T10:50:17.736Z,10.88
2022-11-05T10:52:56.449Z,10.87
2022-11-05T10:55:28.510Z,10.93
2022-11-05T10:58:07.514Z,10.98
2022-11-05T11:00:35.367Z,10.91
2022-11-05T11:03:05.596Z,10.83
2022-11-05T11:05:36.040Z,10.78
2022-11-05T11:08:20.421Z,10.71
2022-11-05T11:10:52.735Z,10.67
2022-11-05T11:13:22.721Z,10.62
2022-11-05T11:15:51.014Z,10.60
2022-11-05T11:18:26.852Z,10.59
2022-11-05T11:20:54.546Z,10.64
2022-11-05T11:23:22.402Z,11.00
2022-11-05T11:25:54.898Z,11.37
2022-11-05T11:28:25.385Z,11.91
2022-11-05T11:30:57.361Z,11.96
2022-11-05T11:33:28.475Z,12.22
2022-11-05T11:35:57.811Z,12.25
2022-11-05T11:38:26.570Z,12.33
2022-11-05T11:41:06.631Z,12.26
2022-11-05T11:43:38.274Z,11.98
2022-11-05T11:46:15.230Z,11.91
2022-11-05T11:48:47.378Z,12.04
2022-11-05T11:51:21.009Z,12.01
2022-11-05T11:53:50.238Z,12.15
2022-11-05T11:56:21.126Z,12.10
2022-11-05T11:58:51.054Z,12.05
2022-11-05T12:01:35.508Z,12.07
2022-11-05T12:04:18.955Z,12.01
2022-11-05T12:06:52.817Z,11.95
2022-11-05T12:09:30.501Z,11.91
2022-11-05T12:12:06.358Z,11.95
2022-11-05T12:14:46.048Z,12.06
2022-11-05T12:17:30.767Z,12.17
2022-11-05T12:20:23.192Z,12.16
2022-11-05T12:23:08.477Z,12.11
2022-11-05T12:25:43.793Z,12.08
2022-11-05T12:28:26.454Z,12.04
2022-11-05T12:31:01.261Z,12.07
2022-11-05T12:33:42.961Z,12.11
2022-11-05T12:36:21.995Z,12.23
2022-11-05T12:39:19.925Z,12.26
2022-11-05T12:41:55.918Z,12.22
2022-11-05T12:44:38.584Z,12.19
2022-11-05T12:47:21.781Z,12.27
2022-11-05T12:50:02.898Z,12.24
2022-11-05T12:52:51.945Z,12.30
2022-11-05T12:55:22.935Z,12.28
2022-11-05T12:57:54.612Z,12.14
2022-11-05T13:00:25.713Z,12.18
2022-11-05T13:02:57.489Z,12.38
2022-11-05T13:05:35.138Z,12.39
2022-11-05T13:08:10.390Z,12.40
2022-11-05T13:10:42.396Z,12.49
2022-11-05T13:13:15.645Z,12.49
2022-11-05T13:15:51.761Z,12.33
2022-11-05T13:18:24.856Z,12.35
2022-11-05T13:20:54.981Z,12.44
2022-11-05T13:23:30.584Z,12.49
2022-11-05T13:26:04.336Z,12.41
2022-11-05T13:28:39.467Z,12.34
2022-11-05T13:31:14.990Z,12.35
2022-11-05T13:33:45.357Z,12.31
2022-11-05T13:36:34.083Z,12.20
2022-11-05T13:39:15.112Z,12.25
2022-11-05T13:42:07.180Z,12.08
2022-11-05T13:45:07.665Z,12.07
2022-11-05T13:47:58.068Z,12.18
2022-11-05T13:50:50.216Z,12.09
2022-11-05T13:53:51.624Z,11.96
2022-11-05T13:56:32.456Z,12.01
2022-11-05T13:59:18.847Z,12.08
2022-11-05T14:01:51.449Z,12.12
2022-11-05T14:04:29.792Z,12.06
2022-11-05T14:07:08.611Z,12.11
2022-11-05T14:09:37.924Z,11.98
2022-11-05T14:12:08.427Z,11.85
2022-11-05T14:14:44.694Z,11.80
2022-11-05T14:17:17.740Z,11.65
2022-11-05T14:20:09.697Z,11.52
2022-11-05T14:22:40.386Z,11.42
2022-11-05T14:26:00.695Z,11.31
2022-11-05T14:28:39.978Z,11.21
2022-11-05T14:31:41.024Z,11.17
2022-11-05T14:34:25.221Z,11.20
2022-11-05T14:37:26.317Z,11.11
2022-11-05T14:39:55.528Z,11.04
2022-11-05T14:42:29.486Z,10.95
2022-11-05T14:45:01.884Z,11.03
2022-11-05T14:47:32.771Z,10.83
2022-11-05T14:50:04.485Z,10.85
2022-11-05T14:52:34.071Z,10.63
2022-11-05T14:55:01.891Z,10.66
2022-11-05T14:58:17.372Z,10.56
2022-11-05T15:00:50.298Z,10.48
2022-11-05T15:03:41.155Z,10.44
2022-11-05T15:06:24.858Z,10.32
2022-11-05T15:09:06.073Z,10.24
2022-11-05T15:11:38.523Z,10.21
2022-11-05T15:14:13.941Z,10.13
2022-11-05T15:16:44.150Z,10.16
2022-11-05T15:19:21.340Z,10.10
2022-11-05T15:21:50.290Z,9.95
2022-11-05T15:24:21.169Z,9.84
2022-11-05T15:26:55.357Z,9.74
2022-11-05T15:29:27.400Z,9.70
2022-11-05T15:31:55.762Z,9.86
2022-11-05T15:34:25.914Z,9.62
2022-11-05T15:36:56.017Z,9.62
2022-11-05T15:39:31.614Z,9.56
2022-11-05T15:42:02.159Z,9.48
2022-11-05T15:44:32.008Z,9.45
2022-11-05T15:47:13.992Z,9.50
2022-11-05T15:49:43.376Z,9.34
2022-11-05T15:52:13.876Z,9.26
2022-11-05T15:54:43.429Z,9.29
2022-11-05T15:57:23.556Z,9.18
2022-11-05T15:59:51.484Z,9.14
2022-11-05T16:02:32.819Z,9.08
2022-11-05T16:05:06.588Z,8.98
2022-11-05T16:07:34.863Z,8.98
2022-11-05T16:10:10.036Z,8.93
2022-11-05T16:12:40.496Z,8.72
2022-11-05T16:15:24.021Z,8.66
2022-11-05T16:17:56.357Z,8.62
2022-11-05T16:20:30.805Z,8.66
2022-11-05T16:23:00.546Z,8.70
2022-11-05T16:25:38.370Z,8.68
2022-11-05T16:28:19.795Z,8.68
2022-11-05T16:30:56.958Z,8.69
2022-11-05T16:33:26.239Z,8.69
2022-11-05T16:35:54.382Z,8.70
2022-11-05T16:38:22.865Z,8.68
2022-11-05T16:40:52.049Z,8.70
2022-11-05T16:43:22.144Z,8.65
2022-11-05T16:45:50.673Z,8.52
2022-11-05T16:48:18.385Z,8.48
2022-11-05T16:50:47.140Z,8.46
2022-11-05T16:53:15.238Z,8.45
2022-11-05T16:55:44.819Z,8.41
2022-11-05T16:58:20.476Z,8.29
2022-11-05T17:00:49.364Z,8.24
2022-11-05T17:03:17.232Z,8.34
2022-11-05T17:05:45.454Z,8.28
2022-11-05T17:08:13.756Z,8.27
2022-11-05T17:10:41.760Z,8.18
2022-11-05T17:13:12.522Z,8.14
2022-11-05T17:15:44.733Z,8.07
2022-11-05T17:18:18.108Z,8.10
2022-11-05T17:20:49.018Z,8.16
2022-11-05T17:23:18.720Z,8.15
2022-11-05T17:25:49.118Z,8.09
2022-11-05T17:28:17.569Z,8.11
2022-11-05T17:30:52.385Z,8.02
2022-11-05T17:33:22.448Z,8.02
2022-11-05T17:35:50.805Z,7.88
2022-11-05T17:38:18.505Z,7.86
2022-11-05T17:40:46.405Z,7.87
2022-11-05T17:43:15.441Z,7.91
2022-11-05T17:45:46.661Z,7.89
2022-11-05T17:48:14.885Z,7.89
2022-11-05T17:50:43.685Z,7.90
2022-11-05T17:53:12.379Z,7.86
2022-11-05T17:55:41.544Z,7.85
2022-11-05T17:58:09.670Z,7.90
2022-11-05T18:00:38.763Z,7.79
2022-11-05T18:03:07.760Z,7.76
2022-11-05T18:05:35.856Z,7.81
2022-11-05T18:08:03.972Z,7.86
2022-11-05T18:10:32.066Z,7.86
2022-11-05T18:13:00.219Z,7.86
2022-11-05T18:15:27.873Z,7.83
2022-11-05T18:17:55.513Z,7.88
2022-11-05T18:20:25.118Z,7.86
2022-11-05T18:22:53.257Z,7.82
2022-11-05T18:25:21.002Z,7.88
2022-11-05T18:27:48.687Z,7.72
2022-11-05T18:30:16.403Z,7.71
2022-11-05T18:32:44.499Z,7.80
2022-11-05T18:35:13.465Z,7.73
2022-11-05T18:37:42.624Z,7.74
2022-11-05T18:40:11.216Z,7.80
2022-11-05T18:42:39.181Z,7.82
2022-11-05T18:45:08.016Z,7.71
2022-11-05T18:47:35.945Z,7.60
2022-11-05T18:50:05.371Z,7.65
2022-11-05T18:52:33.762Z,7.63
2022-11-05T18:55:02.989Z,7.65
2022-11-05T18:57:31.048Z,7.67
2022-11-05T18:59:58.873Z,7.66
2022-11-05T19:02:26.954Z,7.67
2022-11-05T19:05:26.692Z,7.66
2022-11-05T19:07:43.175Z,7.69
2022-11-05T19:10:12.501Z,7.74
2022-11-05T19:12:40.455Z,7.59
2022-11-05T19:15:09.395Z,7.66
2022-11-05T19:17:37.647Z,7.69
2022-11-05T19:20:07.027Z,7.63
2022-11-05T19:22:34.796Z,7.47
2022-11-05T19:25:03.757Z,7.45
2022-11-05T19:27:32.890Z,7.42
2022-11-05T19:30:01.366Z,7.40
2022-11-05T19:32:29.126Z,7.49
2022-11-05T19:34:57.040Z,7.56
2022-11-05T19:37:24.743Z,7.59
2022-11-05T19:39:52.497Z,7.64
2022-11-05T19:42:20.318Z,7.66
2022-11-05T19:44:49.405Z,7.63
2022-11-05T19:47:17.150Z,7.61
2022-11-05T19:49:45.018Z,7.56
2022-11-05T19:52:12.774Z,7.53
2022-11-05T19:54:40.828Z,7.58
2022-11-05T19:57:08.556Z,7.57
2022-11-05T19:59:36.273Z,7.53
2022-11-05T20:02:06.057Z,7.38
2022-11-05T20:04:34.609Z,7.18
2022-11-05T20:07:02.405Z,7.03
2022-11-05T20:09:30.131Z,6.95
2022-11-05T20:11:57.941Z,6.88
2022-11-05T20:14:26.641Z,6.92
2022-11-05T20:16:54.761Z,6.99
2022-11-05T20:19:24.577Z,7.00
2022-11-05T20:21:52.852Z,6.97
2022-11-05T20:24:25.350Z,7.03
2022-11-05T20:26:54.058Z,7.09
2022-11-05T20:29:22.977Z,7.11
2022-11-05T20:31:51.133Z,7.15
2022-11-05T20:34:18.926Z,7.15
2022-11-05T20:36:48.103Z,7.13
2022-11-05T20:39:16.327Z,7.11
2022-11-05T20:41:44.151Z,7.05
2022-11-05T20:44:12.006Z,7.04
2022-11-05T20:46:39.773Z,7.04
2022-11-05T20:49:07.481Z,7.01
2022-11-05T20:51:35.197Z,6.99
2022-11-05T20:54:05.318Z,7.03
2022-11-05T20:56:35.760Z,7.09
2022-11-05T20:59:04.051Z,7.16
2022-11-05T21:01:33.982Z,7.18
2022-11-05T21:04:02.834Z,7.18
2022-11-05T21:06:30.982Z,7.17
2022-11-05T21:08:58.926Z,7.25
2022-11-05T21:11:28.094Z,7.28
2022-11-05T21:13:55.838Z,7.33
2022-11-05T21:16:23.574Z,7.30
2022-11-05T21:18:51.509Z,7.31
2022-11-05T21:21:21.457Z,7.32
2022-11-05T21:23:49.283Z,7.29
2022-11-05T21:26:18.543Z,7.30
2022-11-05T21:28:47.619Z,7.29
2022-11-05T21:31:15.394Z,7.28
2022-11-05T21:33:43.153Z,7.29
2022-11-05T21:36:12.688Z,7.37
2022-11-05T21:38:41.417Z,7.37
2022-11-05T21:41:10.865Z,7.42
2022-11-05T21:43:40.476Z,7.45
2022-11-05T21:46:13.000Z,7.41
2022-11-05T21:48:40.738Z,7.40
2022-11-05T21:51:27.804Z,7.41
2022-11-05T21:54:13.338Z,7.39
2022-11-05T21:56:55.187Z,7.39
2022-11-05T21:59:42.807Z,7.38
2022-11-05T22:02:14.353Z,7.36
2022-11-05T22:04:44.575Z,7.35
2022-11-05T22:07:14.201Z,7.35
2022-11-05T22:09:41.970Z,7.24
2022-11-05T22:12:11.763Z,7.26
2022-11-05T22:14:39.852Z,7.19
2022-11-05T22:17:08.529Z,7.23
2022-11-05T22:19:37.709Z,7.27
2022-11-05T22:22:06.549Z,7.30
2022-11-05T22:24:35.603Z,7.32
2022-11-05T22:27:05.607Z,7.30
2022-11-05T22:29:33.276Z,7.27
2022-11-05T22:32:01.030Z,7.30
2022-11-05T22:34:28.735Z,7.27
2022-11-05T22:36:57.775Z,7.18
2022-11-05T22:39:25.925Z,7.17
2022-11-05T22:41:54.970Z,7.12
2022-11-05T22:44:23.028Z,7.02
2022-11-05T22:46:51.089Z,7.07
2022-11-05T22:49:19.301Z,7.10
2022-11-05T22:51:47.161Z,7.01
2022-11-05T22:54:16.629Z,7.01
2022-11-05T22:56:44.733Z,7.07
2022-11-05T22:59:14.865Z,7.11
2022-11-05T23:01:43.199Z,7.11
2022-11-05T23:04:11.369Z,7.03
2022-11-05T23:06:56.461Z,7.06
2022-11-05T23:09:45.276Z,7.03
2022-11-05T23:12:22.668Z,6.97
2022-11-05T23:14:50.690Z,6.91
2022-11-05T23:17:35.905Z,6.77
2022-11-05T23:20:24.333Z,6.63
2022-11-05T23:23:09.804Z,6.50
2022-11-05T23:25:38.751Z,6.44
2022-11-05T23:28:10.248Z,6.46
2022-11-05T23:31:00.049Z,6.47
2022-11-05T23:33:27.765Z,6.39
2022-11-05T23:36:13.586Z,6.46
2022-11-05T23:38:41.245Z,6.49
2022-11-05T23:41:27.892Z,6.51
2022-11-05T23:44:12.983Z,6.35
2022-11-05T23:46:58.412Z,6.26
2022-11-05T23:49:26.825Z,6.28
2022-11-05T23:51:54.489Z,6.29
2022-11-05T23:54:22.899Z,6.31
2022-11-05T23:56:52.222Z,6.23
2022-11-05T23:59:20.107Z,6.24
